createdAt,value
2022-08-07T00:16:29.273Z,1.50
2022-08-07T00:18:58.417Z,1.37
2022-08-07T00:21:56.195Z,1.23
2022-08-07T00:24:16.539Z,1.40
2022-08-07T00:26:58.461Z,0.73
2022-08-07T00:29:39.392Z,1.13
2022-08-07T00:32:13.478Z,1.53
2022-08-07T00:34:42.831Z,1.27
2022-08-07T00:37:11.998Z,1.50
2022-08-07T00:39:45.046Z,1.23
2022-08-07T00:42:25.515Z,1.70
2022-08-07T00:44:58.796Z,1.40
2022-08-07T00:48:08.218Z,1.83
2022-08-07T00:50:43.631Z,1.10
2022-08-07T00:53:09.223Z,1.37
2022-08-07T00:56:03.371Z,1.50
2022-08-07T00:58:28.673Z,0.60
2022-08-07T01:00:57.698Z,1.30
2022-08-07T01:03:55.358Z,1.40
2022-08-07T01:06:17.866Z,0.77
2022-08-07T01:08:53.386Z,1.63
2022-08-07T01:12:23.370Z,1.23
2022-08-07T01:14:16.531Z,1.10
2022-08-07T01:16:47.184Z,1.50
2022-08-07T01:19:20.422Z,1.43
2022-08-07T01:21:55.659Z,1.00
2022-08-07T01:24:24.704Z,1.43
2022-08-07T01:26:55.579Z,0.93
2022-08-07T01:29:31.388Z,1.53
2022-08-07T01:32:05.597Z,1.43
2022-08-07T01:34:47.413Z,1.13
2022-08-07T01:37:20.776Z,1.33
2022-08-07T01:39:51.357Z,1.90
2022-08-07T01:42:40.235Z,1.37
2022-08-07T01:45:17.933Z,1.47
2022-08-07T01:48:17.678Z,1.50
2022-08-07T01:50:43.323Z,1.00
2022-08-07T01:53:20.832Z,1.23
2022-08-07T01:55:54.842Z,1.57
2022-08-07T01:58:33.066Z,1.17
2022-08-07T02:01:25.502Z,1.13
2022-08-07T02:03:59.690Z,1.00
2022-08-07T02:06:32.684Z,1.10
2022-08-07T02:09:06.748Z,1.40
2022-08-07T02:12:03.683Z,1.27
2022-08-07T02:14:35.961Z,1.23
2022-08-07T02:17:24.836Z,1.30
2022-08-07T02:20:05.551Z,1.57
2022-08-07T02:22:41.392Z,1.20
2022-08-07T02:25:18.165Z,1.30
2022-08-07T02:27:51.298Z,1.40
2022-08-07T02:30:22.870Z,1.77
2022-08-07T02:33:00.730Z,1.50
2022-08-07T02:36:29.205Z,1.20
2022-08-07T02:38:35.686Z,1.20
2022-08-07T02:41:07.997Z,1.50
2022-08-07T02:43:43.285Z,1.20
2022-08-07T02:46:19.971Z,1.40
2022-08-07T02:48:54.904Z,1.20
2022-08-07T02:51:41.834Z,1.60
2022-08-07T02:54:19.041Z,1.43
2022-08-07T02:56:51.300Z,1.83
2022-08-07T02:59:24.078Z,1.83
2022-08-07T03:02:01.184Z,1.73
2022-08-07T03:04:39.054Z,1.53
2022-08-07T03:07:10.826Z,1.73
2022-08-07T03:09:43.773Z,2.03
2022-08-07T03:12:22.413Z,1.40
2022-08-07T03:15:02.365Z,2.10
2022-08-07T03:17:53.479Z,1.60
2022-08-07T03:20:23.851Z,1.43
2022-08-07T03:23:00.696Z,1.23
2022-08-07T03:25:41.494Z,2.17
2022-08-07T03:28:37.378Z,1.90
2022-08-07T03:31:24.459Z,1.30
2022-08-07T03:34:00.861Z,2.17
2022-08-07T03:36:31.492Z,1.80
2022-08-07T03:39:05.738Z,1.87
2022-08-07T03:41:42.031Z,2.17
2022-08-07T03:44:31.745Z,1.93
2022-08-07T03:47:13.465Z,1.80
2022-08-07T03:49:48.028Z,1.70
2022-08-07T03:52:26.088Z,1.53
2022-08-07T03:55:07.151Z,1.67
2022-08-07T03:58:33.992Z,1.93
2022-08-07T04:00:35.641Z,1.50
2022-08-07T04:03:06.669Z,1.83
2022-08-07T04:05:41.957Z,1.67
2022-08-07T04:08:16.191Z,1.80
2022-08-07T04:10:54.563Z,1.33
2022-08-07T04:14:10.557Z,1.90
2022-08-07T04:16:30.935Z,3.03
2022-08-07T04:19:04.034Z,1.70
2022-08-07T04:21:58.783Z,1.23
2022-08-07T04:24:34.125Z,3.77
2022-08-07T04:27:20.822Z,2.20
2022-08-07T04:30:02.313Z,2.20
2022-08-07T04:32:35.292Z,1.60
2022-08-07T04:35:06.333Z,1.83
2022-08-07T04:38:00.907Z,1.40
2022-08-07T04:40:30.173Z,1.53
2022-08-07T04:43:04.233Z,1.10
2022-08-07T04:46:01.164Z,1.90
2022-08-07T04:48:47.342Z,1.20
2022-08-07T04:51:29.711Z,1.73
2022-08-07T04:54:06.938Z,1.13
2022-08-07T04:58:10.149Z,1.40
2022-08-07T05:00:09.664Z,1.60
2022-08-07T05:02:50.003Z,1.40
2022-08-07T05:05:53.606Z,1.13
2022-08-07T05:09:00.126Z,2.00
2022-08-07T05:11:19.530Z,1.50
2022-08-07T05:14:55.701Z,1.60
2022-08-07T05:16:53.941Z,1.40
2022-08-07T05:19:44.258Z,1.70
2022-08-07T05:22:26.929Z,1.40
2022-08-07T05:24:58.731Z,1.70
2022-08-07T05:28:02.574Z,1.70
2022-08-07T05:30:32.421Z,1.67
2022-08-07T05:33:05.544Z,2.40
2022-08-07T05:35:42.473Z,1.43
2022-08-07T05:39:00.607Z,1.80
2022-08-07T05:41:14.137Z,1.73
2022-08-07T05:44:07.655Z,1.10
2022-08-07T05:46:43.016Z,1.20
2022-08-07T05:49:24.601Z,0.80
2022-08-07T05:51:56.067Z,1.43
2022-08-07T05:54:31.129Z,1.40
2022-08-07T05:57:18.268Z,1.30
2022-08-07T05:59:57.463Z,1.03
2022-08-07T06:02:32.542Z,1.30
2022-08-07T06:05:07.815Z,1.63
2022-08-07T06:08:29.847Z,0.70
2022-08-07T06:10:40.529Z,1.60
2022-08-07T06:13:13.357Z,1.20
2022-08-07T06:15:44.523Z,1.50
2022-08-07T06:18:27.954Z,1.60
2022-08-07T06:22:15.070Z,0.80
2022-08-07T06:24:46.079Z,1.50
2022-08-07T06:26:45.257Z,1.30
2022-08-07T06:29:16.926Z,1.20
2022-08-07T06:31:50.368Z,1.17
2022-08-07T06:34:22.024Z,1.77
2022-08-07T06:36:52.464Z,1.20
2022-08-07T06:40:13.135Z,0.70
2022-08-07T06:42:33.158Z,1.20
2022-08-07T06:45:06.939Z,0.87
2022-08-07T06:47:57.339Z,1.10
2022-08-07T06:50:30.444Z,1.10
2022-08-07T06:53:04.077Z,0.70
2022-08-07T06:55:53.465Z,1.27
2022-08-07T06:58:28.904Z,1.30
2022-08-07T07:01:11.185Z,1.20
2022-08-07T07:03:50.022Z,0.77
2022-08-07T07:06:28.476Z,0.53
2022-08-07T07:08:58.154Z,1.00
2022-08-07T07:12:08.178Z,1.00
2022-08-07T07:14:50.128Z,0.70
2022-08-07T07:17:39.113Z,1.00
2022-08-07T07:20:16.949Z,1.10
2022-08-07T07:24:06.582Z,1.00
2022-08-07T07:26:32.190Z,0.50
2022-08-07T07:31:39.698Z,0.80
2022-08-07T07:34:15.498Z,0.80
2022-08-07T07:36:54.011Z,0.70
2022-08-07T07:39:25.709Z,0.60
2022-08-07T07:42:14.058Z,0.60
2022-08-07T07:44:54.627Z,1.13
2022-08-07T07:47:29.923Z,0.63
2022-08-07T07:50:34.081Z,0.70
2022-08-07T07:52:58.099Z,1.00
2022-08-07T07:55:37.531Z,0.73
2022-08-07T07:58:29.692Z,0.60
2022-08-07T08:02:03.206Z,0.60
2022-08-07T08:04:10.435Z,0.40
2022-08-07T08:06:55.205Z,0.83
2022-08-07T08:09:29.593Z,0.70
2022-08-07T08:12:05.259Z,1.03
2022-08-07T08:14:43.455Z,0.70
2022-08-07T08:17:56.774Z,0.97
2022-08-07T08:20:23.106Z,0.80
2022-08-07T08:23:17.103Z,0.70
2022-08-07T08:26:10.640Z,0.87
2022-08-07T08:31:58.956Z,0.60
2022-08-07T08:34:29.016Z,0.60
2022-08-07T08:37:09.689Z,0.60
2022-08-07T08:39:55.129Z,0.50
2022-08-07T08:42:42.144Z,0.60
2022-08-07T08:45:41.981Z,0.57
2022-08-07T08:48:36.224Z,0.50
2022-08-07T08:51:14.228Z,0.47
2022-08-07T08:54:09.151Z,0.63
2022-08-07T08:56:58.726Z,0.40
2022-08-07T08:59:48.587Z,0.63
2022-08-07T09:02:37.321Z,0.50
2022-08-07T09:05:36.623Z,0.70
2022-08-07T09:08:42.393Z,0.50
2022-08-07T09:11:43.361Z,0.40
2022-08-07T09:14:33.812Z,0.50
2022-08-07T09:17:27.554Z,0.50
2022-08-07T09:24:32.925Z,0.30
2022-08-07T09:26:50.930Z,0.47
2022-08-07T09:30:04.373Z,0.40
2022-08-07T09:33:41.114Z,0.30
2022-08-07T09:36:16.866Z,0.40
2022-08-07T09:38:58.093Z,0.50
2022-08-07T09:42:03.009Z,0.40
2022-08-07T09:47:52.425Z,0.50
2022-08-07T09:48:14.558Z,0.57
2022-08-07T09:52:10.449Z,0.40
2022-08-07T09:54:21.691Z,0.57
2022-08-07T10:00:32.210Z,0.47
2022-08-07T10:04:05.922Z,1.50
2022-08-07T10:11:16.710Z,1.03
2022-08-07T10:14:11.434Z,0.50
2022-08-07T10:17:16.825Z,0.47
2022-08-07T10:20:30.595Z,0.40
2022-08-07T10:27:30.224Z,0.40
2022-08-07T10:30:21.230Z,0.67
2022-08-07T10:42:58.015Z,0.43
2022-08-07T10:45:57.823Z,0.57
2022-08-07T10:48:41.500Z,0.60
2022-08-07T10:51:57.662Z,0.70
2022-08-07T10:54:24.094Z,0.40
2022-08-07T10:57:12.061Z,0.50
2022-08-07T11:00:36.442Z,0.43
2022-08-07T11:03:37.585Z,0.40
2022-08-07T11:10:10.032Z,0.43
2022-08-07T11:12:43.384Z,0.50
2022-08-07T11:25:14.985Z,0.60
2022-08-07T11:28:39.050Z,0.40
2022-08-07T11:31:27.574Z,0.40
2022-08-07T11:34:10.865Z,0.50
2022-08-07T11:37:12.660Z,0.53
2022-08-07T11:43:04.032Z,0.50
2022-08-07T11:46:16.984Z,0.63
2022-08-07T11:49:27.574Z,0.30
2022-08-07T11:53:07.307Z,0.50
2022-08-07T11:56:15.565Z,0.40
2022-08-07T12:03:42.060Z,0.40
2022-08-07T12:06:51.631Z,0.57
2022-08-07T12:10:12.530Z,0.70
2022-08-07T12:12:58.009Z,0.40
2022-08-07T12:16:05.417Z,0.70
2022-08-07T12:18:35.577Z,0.63
2022-08-07T12:21:55.056Z,0.50
2022-08-07T12:24:38.527Z,0.40
2022-08-07T12:27:17.562Z,0.60
2022-08-07T12:33:23.313Z,1.13
2022-08-07T12:36:05.656Z,0.40
2022-08-07T12:38:57.872Z,0.50
2022-08-07T12:41:52.806Z,0.40
2022-08-07T12:44:32.692Z,0.40
2022-08-07T12:47:21.801Z,0.30
2022-08-07T12:50:38.114Z,0.60
2022-08-07T12:53:05.261Z,0.40
2022-08-07T12:56:22.225Z,0.60
2022-08-07T12:59:54.177Z,0.30
2022-08-07T13:06:54.250Z,0.40
2022-08-07T13:10:37.628Z,0.30
2022-08-07T13:12:58.971Z,0.60
2022-08-07T13:15:41.385Z,0.40
2022-08-07T13:18:26.710Z,0.87
2022-08-07T13:21:10.215Z,0.97
2022-08-07T13:24:04.339Z,0.40
2022-08-07T13:26:46.124Z,0.30
2022-08-07T13:29:20.399Z,0.40
2022-08-07T13:31:58.076Z,0.87
2022-08-07T13:34:44.693Z,0.57
2022-08-07T13:37:30.207Z,0.90
2022-08-07T13:40:36.735Z,0.67
2022-08-07T13:43:13.844Z,0.60
2022-08-07T13:46:25.599Z,0.47
2022-08-07T13:49:02.181Z,0.47
2022-08-07T13:52:22.819Z,0.40
2022-08-07T13:54:33.767Z,0.40
2022-08-07T13:57:21.987Z,0.63
2022-08-07T13:59:56.360Z,0.60
2022-08-07T14:02:45.772Z,0.77
2022-08-07T14:05:38.310Z,0.77
2022-08-07T14:08:37.372Z,0.80
2022-08-07T14:11:23.897Z,0.60
2022-08-07T14:14:06.178Z,0.43
2022-08-07T14:16:49.845Z,0.60
2022-08-07T14:20:43.595Z,0.33
2022-08-07T14:22:42.079Z,0.57
2022-08-07T14:25:25.671Z,0.40
2022-08-07T14:28:15.499Z,0.50
2022-08-07T14:31:04.558Z,1.10
2022-08-07T14:33:45.919Z,4.20
2022-08-07T14:36:25.875Z,2.10
2022-08-07T14:38:58.669Z,8.97
2022-08-07T14:44:33.735Z,5.40
2022-08-07T14:47:14.590Z,5.33
2022-08-07T14:52:43.414Z,3.57
2022-08-07T14:55:31.857Z,1.60
2022-08-07T14:58:04.157Z,2.20
2022-08-07T15:00:52.619Z,0.93
2022-08-07T15:03:52.158Z,1.47
2022-08-07T15:06:30.288Z,1.80
2022-08-07T15:09:58.409Z,0.87
2022-08-07T15:12:03.695Z,0.87
2022-08-07T15:14:57.608Z,0.50
2022-08-07T15:17:54.691Z,1.23
2022-08-07T15:20:55.214Z,0.70
2022-08-07T15:25:13.103Z,0.50
2022-08-07T15:26:44.287Z,1.17
2022-08-07T15:32:11.725Z,0.50
2022-08-07T15:43:53.722Z,0.50
2022-08-07T15:46:38.369Z,0.67
2022-08-07T15:49:15.223Z,0.63
2022-08-07T15:54:47.606Z,0.80
2022-08-07T15:57:47.540Z,0.30
2022-08-07T16:00:31.011Z,0.40
2022-08-07T16:03:21.381Z,0.60
2022-08-07T16:05:57.930Z,0.50
2022-08-07T16:08:38.850Z,0.90
2022-08-07T16:11:41.648Z,0.47
2022-08-07T16:14:19.409Z,1.10
2022-08-07T16:17:16.085Z,0.73
2022-08-07T16:20:34.248Z,0.50
2022-08-07T16:23:53.596Z,0.50
2022-08-07T16:26:59.328Z,0.43
2022-08-07T16:30:30.057Z,0.40
2022-08-07T16:34:01.334Z,0.83
2022-08-07T16:37:02.560Z,0.50
2022-08-07T16:40:01.174Z,0.73
2022-08-07T16:42:48.176Z,0.70
2022-08-07T16:46:40.691Z,0.50
2022-08-07T16:50:29.224Z,0.70
2022-08-07T16:54:01.444Z,0.50
2022-08-07T16:56:20.903Z,0.70
2022-08-07T16:59:10.690Z,0.80
2022-08-07T17:04:58.678Z,0.57
2022-08-07T17:08:09.228Z,0.47
2022-08-07T17:10:54.354Z,0.60
2022-08-07T17:14:18.409Z,0.50
2022-08-07T17:16:58.029Z,0.40
2022-08-07T17:20:01.664Z,0.60
2022-08-07T17:22:38.471Z,0.60
2022-08-07T17:25:51.136Z,0.70
2022-08-07T17:28:31.408Z,0.70
2022-08-07T17:31:16.233Z,0.40
2022-08-07T17:34:34.808Z,0.60
2022-08-07T17:40:31.195Z,0.70
2022-08-07T17:43:18.209Z,0.50
2022-08-07T17:45:59.035Z,1.00
2022-08-07T17:48:33.873Z,0.73
2022-08-07T17:51:14.186Z,0.90
2022-08-07T17:54:06.148Z,0.70
2022-08-07T17:56:52.672Z,0.40
2022-08-07T17:59:35.408Z,0.63
2022-08-07T18:02:23.186Z,0.80
2022-08-07T18:05:20.995Z,0.73
2022-08-07T18:08:35.477Z,0.47
2022-08-07T18:12:16.226Z,0.40
2022-08-07T18:14:29.752Z,0.70
2022-08-07T18:17:10.742Z,1.08
2022-08-07T18:21:08.598Z,0.70
2022-08-07T18:22:55.412Z,0.60
2022-08-07T18:25:40.108Z,0.50
2022-08-07T18:28:35.706Z,0.70
2022-08-07T18:35:01.093Z,0.57
2022-08-07T18:38:55.628Z,0.60
2022-08-07T18:40:53.438Z,0.80
2022-08-07T18:43:50.551Z,0.60
2022-08-07T18:46:43.101Z,0.40
2022-08-07T18:50:31.133Z,0.60
2022-08-07T18:52:53.029Z,0.60
2022-08-07T18:55:55.473Z,1.00
2022-08-07T18:58:37.025Z,0.73
2022-08-07T19:02:31.892Z,0.90
2022-08-07T19:04:39.831Z,0.70
2022-08-07T19:07:35.014Z,0.80
2022-08-07T19:10:18.209Z,0.90
2022-08-07T19:13:10.064Z,0.70
2022-08-07T19:16:05.026Z,0.50
2022-08-07T19:18:46.505Z,0.87
2022-08-07T19:21:46.602Z,1.10
2022-08-07T19:24:31.055Z,0.50
2022-08-07T19:28:58.448Z,1.03
2022-08-07T19:31:05.895Z,0.80
2022-08-07T19:32:59.800Z,0.67
2022-08-07T19:35:42.418Z,1.03
2022-08-07T19:38:19.601Z,1.00
2022-08-07T19:41:06.981Z,0.90
2022-08-07T19:43:51.189Z,0.40
2022-08-07T19:46:28.982Z,1.03
2022-08-07T19:49:04.973Z,0.87
2022-08-07T19:51:52.736Z,0.60
2022-08-07T19:54:55.790Z,0.85
2022-08-07T19:58:00.891Z,0.57
2022-08-07T20:00:28.468Z,0.70
2022-08-07T20:03:03.631Z,0.60
2022-08-07T20:06:00.084Z,0.83
2022-08-07T20:08:30.280Z,1.00
2022-08-07T20:11:10.086Z,1.07
2022-08-07T20:13:50.680Z,1.60
2022-08-07T20:16:35.201Z,0.80
2022-08-07T20:19:06.205Z,1.00
2022-08-07T20:21:47.244Z,1.20
2022-08-07T20:24:24.038Z,1.03
2022-08-07T20:27:02.618Z,0.53
2022-08-07T20:29:47.872Z,1.07
2022-08-07T20:32:25.479Z,0.93
2022-08-07T20:35:01.977Z,0.60
2022-08-07T20:37:55.227Z,0.88
2022-08-07T20:40:34.300Z,0.70
2022-08-07T20:43:20.891Z,0.87
2022-08-07T20:49:55.217Z,1.60
2022-08-07T20:51:50.353Z,0.77
2022-08-07T20:57:32.986Z,1.60
2022-08-07T21:00:13.181Z,1.10
2022-08-07T21:03:11.166Z,1.13
2022-08-07T21:06:21.594Z,0.70
2022-08-07T21:09:14.411Z,0.90
2022-08-07T21:11:50.900Z,0.90
2022-08-07T21:14:48.498Z,0.70
2022-08-07T21:18:06.189Z,0.70
2022-08-07T21:23:50.097Z,0.90
2022-08-07T21:26:47.815Z,1.13
2022-08-07T21:29:30.551Z,0.93
2022-08-07T21:32:46.945Z,1.25
2022-08-07T21:35:34.658Z,1.07
2022-08-07T21:38:44.205Z,0.87
2022-08-07T21:41:25.271Z,0.80
2022-08-07T21:44:28.343Z,0.83
2022-08-07T21:47:07.474Z,1.30
2022-08-07T21:50:14.532Z,1.50
2022-08-07T21:53:25.235Z,0.77
2022-08-07T21:56:36.225Z,0.70
2022-08-07T21:59:05.409Z,1.05
2022-08-07T22:02:10.323Z,1.23
2022-08-07T22:04:39.020Z,1.10
2022-08-07T22:07:16.310Z,1.00
2022-08-07T22:10:01.852Z,1.50
2022-08-07T22:12:38.458Z,1.17
2022-08-07T22:16:39.739Z,0.97
2022-08-07T22:18:19.214Z,1.00
2022-08-07T22:20:55.722Z,1.63
2022-08-07T22:23:34.975Z,0.87
2022-08-07T22:26:18.675Z,1.60
2022-08-07T22:28:58.405Z,0.97
2022-08-07T22:31:59.035Z,0.70
2022-08-07T22:34:35.615Z,0.90
2022-08-07T22:37:15.398Z,0.87
2022-08-07T22:39:54.327Z,1.00
2022-08-07T22:42:30.820Z,1.40
2022-08-07T22:45:11.014Z,0.60
2022-08-07T22:48:31.671Z,1.33
2022-08-07T22:51:36.462Z,1.07
2022-08-07T22:54:23.393Z,1.10
2022-08-07T22:57:16.907Z,1.25
2022-08-07T22:59:53.856Z,1.10
2022-08-07T23:02:49.154Z,0.93
2022-08-07T23:06:15.257Z,0.93
2022-08-07T23:10:03.699Z,0.90
2022-08-07T23:12:32.632Z,1.30
2022-08-07T23:15:21.863Z,0.88
2022-08-07T23:18:25.991Z,1.00
2022-08-07T23:21:30.393Z,1.33
2022-08-07T23:24:38.557Z,1.20
2022-08-07T23:28:22.401Z,0.77
2022-08-07T23:34:52.043Z,1.10
2022-08-07T23:38:00.896Z,1.20
2022-08-07T23:40:41.626Z,0.90
2022-08-07T23:43:38.046Z,0.70
2022-08-07T23:46:30.243Z,3.00
2022-08-07T23:49:47.488Z,1.10
2022-08-07T23:53:06.190Z,0.90
2022-08-07T23:55:52.437Z,0.90
2022-08-07T23:58:37.220Z,1.30
